Terminal Aerodrome Forecast
Issued by NWS

Home | Current Version | Previous Version | Text Only | Print | Product List | Glossary On
Versions: 1 2 3 4 5 6 7 8 9 10 11 12 13 14 15
838
FTUS44 KCRP 131737
TAFALI
TAF
KALI 131737Z 1318/1418 17008KT P6SM SCT035
     FM132100 14013KT P6SM FEW050
     FM140200 14008KT P6SM FEW250
     FM140800 15006KT 5SM BR SCT015
     FM141000 16005KT 3SM BR BKN010
     FM141500 17013KT P6SM SCT025=

USA.gov is the U.S. government's official web portal to all federal, state and local government web resources and services.